sensor_id;sensor_type;location;lat;lon;timestamp;temperature;humidity
46231;DHT22;31949;51.404;-0.038;2022-10-28T00:01:26;15.60;99.90
46231;DHT22;31949;51.404;-0.038;2022-10-28T00:03:56;15.50;99.90
46231;DHT22;31949;51.404;-0.038;2022-10-28T00:06:26;15.50;99.90
46231;DHT22;31949;51.404;-0.038;2022-10-28T00:08:54;15.50;99.90
46231;DHT22;31949;51.404;-0.038;2022-10-28T00:11:25;15.50;99.90
46231;DHT22;31949;51.404;-0.038;2022-10-28T00:13:54;15.50;99.90
46231;DHT22;31949;51.404;-0.038;2022-10-28T00:16:24;15.50;99.90
46231;DHT22;31949;51.404;-0.038;2022-10-28T00:18:52;15.50;99.90
46231;DHT22;31949;51.404;-0.038;2022-10-28T00:21:29;15.50;99.90
46231;DHT22;31949;51.404;-0.038;2022-10-28T00:23:56;15.40;99.90
46231;DHT22;31949;51.404;-0.038;2022-10-28T00:26:29;15.40;99.90
46231;DHT22;31949;51.404;-0.038;2022-10-28T00:28:59;15.40;99.90
46231;DHT22;31949;51.404;-0.038;2022-10-28T00:31:28;15.30;99.90
46231;DHT22;31949;51.404;-0.038;2022-10-28T00:33:57;15.30;99.90
46231;DHT22;31949;51.404;-0.038;2022-10-28T00:36:28;15.30;99.90
46231;DHT22;31949;51.404;-0.038;2022-10-28T00:38:55;15.30;99.90
46231;DHT22;31949;51.404;-0.038;2022-10-28T00:41:34;15.20;99.90
46231;DHT22;31949;51.404;-0.038;2022-10-28T00:47:35;15.20;99.90
46231;DHT22;31949;51.404;-0.038;2022-10-28T00:52:36;15.20;99.90
46231;DHT22;31949;51.404;-0.038;2022-10-28T00:55:04;15.10;99.90
46231;DHT22;31949;51.404;-0.038;2022-10-28T00:57:35;15.10;99.90
46231;DHT22;31949;51.404;-0.038;2022-10-28T01:00:05;15.10;99.90
46231;DHT22;31949;51.404;-0.038;2022-10-28T01:02:46;15.10;99.90
46231;DHT22;31949;51.404;-0.038;2022-10-28T01:05:19;15.00;99.90
46231;DHT22;31949;51.404;-0.038;2022-10-28T01:07:49;15.00;99.90
46231;DHT22;31949;51.404;-0.038;2022-10-28T01:10:17;15.00;99.90
46231;DHT22;31949;51.404;-0.038;2022-10-28T01:15:41;15.00;99.90
46231;DHT22;31949;51.404;-0.038;2022-10-28T01:18:29;15.00;99.90
46231;DHT22;31949;51.404;-0.038;2022-10-28T01:30:20;14.90;99.90
46231;DHT22;31949;51.404;-0.038;2022-10-28T01:32:50;14.90;99.90
46231;DHT22;31949;51.404;-0.038;2022-10-28T01:35:37;14.90;99.90
46231;DHT22;31949;51.404;-0.038;2022-10-28T01:41:09;14.80;99.90
46231;DHT22;31949;51.404;-0.038;2022-10-28T01:43:46;14.80;99.90
46231;DHT22;31949;51.404;-0.038;2022-10-28T01:46:20;14.80;99.90
46231;DHT22;31949;51.404;-0.038;2022-10-28T01:48:58;14.80;99.90
46231;DHT22;31949;51.404;-0.038;2022-10-28T01:51:32;14.80;99.90
46231;DHT22;31949;51.404;-0.038;2022-10-28T01:54:03;14.70;99.90
46231;DHT22;31949;51.404;-0.038;2022-10-28T01:56:36;14.70;99.90
46231;DHT22;31949;51.404;-0.038;2022-10-28T01:59:06;14.70;99.90
46231;DHT22;31949;51.404;-0.038;2022-10-28T02:01:35;14.80;99.90
46231;DHT22;31949;51.404;-0.038;2022-10-28T02:04:03;14.80;99.90
46231;DHT22;31949;51.404;-0.038;2022-10-28T02:06:31;14.80;99.90
46231;DHT22;31949;51.404;-0.038;2022-10-28T02:12:20;14.90;99.90
46231;DHT22;31949;51.404;-0.038;2022-10-28T02:18:22;14.90;99.90
46231;DHT22;31949;51.404;-0.038;2022-10-28T02:23:53;15.00;99.90
46231;DHT22;31949;51.404;-0.038;2022-10-28T02:26:38;15.00;99.90
46231;DHT22;31949;51.404;-0.038;2022-10-28T02:29:15;15.00;99.90
46231;DHT22;31949;51.404;-0.038;2022-10-28T02:31:52;14.90;99.90
46231;DHT22;31949;51.404;-0.038;2022-10-28T02:34:25;15.00;99.90
46231;DHT22;31949;51.404;-0.038;2022-10-28T02:36:53;15.10;99.90
46231;DHT22;31949;51.404;-0.038;2022-10-28T02:39:31;15.00;99.90
46231;DHT22;31949;51.404;-0.038;2022-10-28T02:42:10;15.10;99.90
46231;DHT22;31949;51.404;-0.038;2022-10-28T02:44:42;15.00;99.90
46231;DHT22;31949;51.404;-0.038;2022-10-28T02:47:14;15.00;99.90
46231;DHT22;31949;51.404;-0.038;2022-10-28T02:49:45;15.00;99.90
46231;DHT22;31949;51.404;-0.038;2022-10-28T02:52:14;15.00;99.90
46231;DHT22;31949;51.404;-0.038;2022-10-28T02:54:47;15.00;99.90
46231;DHT22;31949;51.404;-0.038;2022-10-28T02:57:18;15.00;99.90
46231;DHT22;31949;51.404;-0.038;2022-10-28T02:59:57;15.00;99.90
46231;DHT22;31949;51.404;-0.038;2022-10-28T03:02:25;14.90;99.90
46231;DHT22;31949;51.404;-0.038;2022-10-28T03:04:53;15.00;99.90
46231;DHT22;31949;51.404;-0.038;2022-10-28T03:07:20;15.00;99.90
46231;DHT22;31949;51.404;-0.038;2022-10-28T03:09:47;15.00;99.90
46231;DHT22;31949;51.404;-0.038;2022-10-28T03:12:14;15.00;99.90
46231;DHT22;31949;51.404;-0.038;2022-10-28T03:14:41;15.00;99.90
46231;DHT22;31949;51.404;-0.038;2022-10-28T03:17:08;15.00;99.90
46231;DHT22;31949;51.404;-0.038;2022-10-28T03:19:35;15.00;99.90
46231;DHT22;31949;51.404;-0.038;2022-10-28T03:22:03;15.00;99.90
46231;DHT22;31949;51.404;-0.038;2022-10-28T03:24:30;15.00;99.90
46231;DHT22;31949;51.404;-0.038;2022-10-28T03:26:57;15.00;99.90
46231;DHT22;31949;51.404;-0.038;2022-10-28T03:29:24;14.90;99.90
46231;DHT22;31949;51.404;-0.038;2022-10-28T03:31:51;15.00;99.90
46231;DHT22;31949;51.404;-0.038;2022-10-28T03:34:18;15.00;99.90
46231;DHT22;31949;51.404;-0.038;2022-10-28T03:36:45;15.00;99.90
46231;DHT22;31949;51.404;-0.038;2022-10-28T03:39:13;15.00;99.90
46231;DHT22;31949;51.404;-0.038;2022-10-28T03:41:40;14.90;99.90
46231;DHT22;31949;51.404;-0.038;2022-10-28T03:44:07;14.90;99.90
46231;DHT22;31949;51.404;-0.038;2022-10-28T03:46:34;14.90;99.90
46231;DHT22;31949;51.404;-0.038;2022-10-28T03:49:02;14.90;99.90
46231;DHT22;31949;51.404;-0.038;2022-10-28T03:51:30;14.90;99.90
46231;DHT22;31949;51.404;-0.038;2022-10-28T03:53:57;14.90;99.90
46231;DHT22;31949;51.404;-0.038;2022-10-28T03:56:24;14.90;99.90
46231;DHT22;31949;51.404;-0.038;2022-10-28T03:58:51;14.90;99.90
46231;DHT22;31949;51.404;-0.038;2022-10-28T04:01:23;14.90;99.90
46231;DHT22;31949;51.404;-0.038;2022-10-28T04:03:50;14.90;99.90
46231;DHT22;31949;51.404;-0.038;2022-10-28T04:06:17;14.90;99.90
46231;DHT22;31949;51.404;-0.038;2022-10-28T04:08:44;14.90;99.90
46231;DHT22;31949;51.404;-0.038;2022-10-28T04:11:11;15.00;99.90
46231;DHT22;31949;51.404;-0.038;2022-10-28T04:13:39;15.20;99.90
46231;DHT22;31949;51.404;-0.038;2022-10-28T04:16:06;15.20;99.90
46231;DHT22;31949;51.404;-0.038;2022-10-28T04:18:33;15.50;99.90
46231;DHT22;31949;51.404;-0.038;2022-10-28T04:21:01;15.60;99.90
46231;DHT22;31949;51.404;-0.038;2022-10-28T04:23:29;15.60;99.90
46231;DHT22;31949;51.404;-0.038;2022-10-28T04:25:56;15.70;99.90
46231;DHT22;31949;51.404;-0.038;2022-10-28T04:28:23;15.80;99.90
46231;DHT22;31949;51.404;-0.038;2022-10-28T04:30:50;15.70;99.90
46231;DHT22;31949;51.404;-0.038;2022-10-28T04:33:18;15.80;99.90
46231;DHT22;31949;51.404;-0.038;2022-10-28T04:35:45;15.90;99.90
46231;DHT22;31949;51.404;-0.038;2022-10-28T04:38:13;15.90;99.90
46231;DHT22;31949;51.404;-0.038;2022-10-28T04:40:41;15.90;99.90
46231;DHT22;31949;51.404;-0.038;2022-10-28T04:43:08;15.90;99.90
46231;DHT22;31949;51.404;-0.038;2022-10-28T04:45:37;15.90;99.90
46231;DHT22;31949;51.404;-0.038;2022-10-28T04:48:05;15.80;99.90
46231;DHT22;31949;51.404;-0.038;2022-10-28T04:50:33;15.80;99.90
46231;DHT22;31949;51.404;-0.038;2022-10-28T04:53:09;15.80;99.90
46231;DHT22;31949;51.404;-0.038;2022-10-28T04:55:36;15.80;99.90
46231;DHT22;31949;51.404;-0.038;2022-10-28T04:58:03;15.70;99.90
46231;DHT22;31949;51.404;-0.038;2022-10-28T05:00:31;15.80;99.90
46231;DHT22;31949;51.404;-0.038;2022-10-28T05:03:01;15.80;99.90
46231;DHT22;31949;51.404;-0.038;2022-10-28T05:05:29;15.80;99.90
46231;DHT22;31949;51.404;-0.038;2022-10-28T05:07:56;15.80;99.90
46231;DHT22;31949;51.404;-0.038;2022-10-28T05:10:23;15.80;99.90
46231;DHT22;31949;51.404;-0.038;2022-10-28T05:12:50;15.80;99.90
46231;DHT22;31949;51.404;-0.038;2022-10-28T05:15:18;15.80;99.90
46231;DHT22;31949;51.404;-0.038;2022-10-28T05:17:46;15.90;99.90
46231;DHT22;31949;51.404;-0.038;2022-10-28T05:20:15;15.80;99.90
46231;DHT22;31949;51.404;-0.038;2022-10-28T05:25:13;15.80;99.90
46231;DHT22;31949;51.404;-0.038;2022-10-28T05:27:40;15.90;99.90
46231;DHT22;31949;51.404;-0.038;2022-10-28T05:30:09;15.90;99.90
46231;DHT22;31949;51.404;-0.038;2022-10-28T05:32:36;15.90;99.90
46231;DHT22;31949;51.404;-0.038;2022-10-28T05:35:04;15.90;99.90
46231;DHT22;31949;51.404;-0.038;2022-10-28T05:37:31;15.90;99.90
46231;DHT22;31949;51.404;-0.038;2022-10-28T05:39:58;16.00;99.90
46231;DHT22;31949;51.404;-0.038;2022-10-28T05:42:25;16.00;99.90
46231;DHT22;31949;51.404;-0.038;2022-10-28T05:44:52;16.10;99.90
46231;DHT22;31949;51.404;-0.038;2022-10-28T05:47:19;16.10;99.90
46231;DHT22;31949;51.404;-0.038;2022-10-28T05:49:47;16.20;99.90
46231;DHT22;31949;51.404;-0.038;2022-10-28T05:52:14;16.20;99.90
46231;DHT22;31949;51.404;-0.038;2022-10-28T05:54:41;16.20;99.90
46231;DHT22;31949;51.404;-0.038;2022-10-28T05:57:08;16.30;99.90
46231;DHT22;31949;51.404;-0.038;2022-10-28T05:59:35;16.30;99.90
46231;DHT22;31949;51.404;-0.038;2022-10-28T06:02:02;16.30;99.90
46231;DHT22;31949;51.404;-0.038;2022-10-28T06:04:29;16.30;99.90
46231;DHT22;31949;51.404;-0.038;2022-10-28T06:06:57;16.30;99.90
46231;DHT22;31949;51.404;-0.038;2022-10-28T06:09:26;16.30;99.90
46231;DHT22;31949;51.404;-0.038;2022-10-28T06:11:54;16.30;99.90
46231;DHT22;31949;51.404;-0.038;2022-10-28T06:14:21;16.30;99.90
46231;DHT22;31949;51.404;-0.038;2022-10-28T06:16:48;16.20;99.90
46231;DHT22;31949;51.404;-0.038;2022-10-28T06:19:15;16.20;99.90
46231;DHT22;31949;51.404;-0.038;2022-10-28T06:21:43;16.20;99.90
46231;DHT22;31949;51.404;-0.038;2022-10-28T06:24:10;16.30;99.90
46231;DHT22;31949;51.404;-0.038;2022-10-28T06:26:39;16.30;99.90
46231;DHT22;31949;51.404;-0.038;2022-10-28T06:29:09;16.30;99.90
46231;DHT22;31949;51.404;-0.038;2022-10-28T06:31:39;16.30;99.90
46231;DHT22;31949;51.404;-0.038;2022-10-28T06:34:08;16.30;99.90
46231;DHT22;31949;51.404;-0.038;2022-10-28T06:36:35;16.30;99.90
46231;DHT22;31949;51.404;-0.038;2022-10-28T06:39:03;16.30;99.90
46231;DHT22;31949;51.404;-0.038;2022-10-28T06:41:30;16.30;99.90
46231;DHT22;31949;51.404;-0.038;2022-10-28T06:43:57;16.30;99.90
46231;DHT22;31949;51.404;-0.038;2022-10-28T06:46:25;16.40;99.90
46231;DHT22;31949;51.404;-0.038;2022-10-28T06:48:55;16.40;99.90
46231;DHT22;31949;51.404;-0.038;2022-10-28T06:51:23;16.40;99.90
46231;DHT22;31949;51.404;-0.038;2022-10-28T06:53:51;16.40;99.90
46231;DHT22;31949;51.404;-0.038;2022-10-28T06:56:18;16.50;99.90
46231;DHT22;31949;51.404;-0.038;2022-10-28T06:58:52;16.50;99.90
46231;DHT22;31949;51.404;-0.038;2022-10-28T07:01:20;16.50;99.90
46231;DHT22;31949;51.404;-0.038;2022-10-28T07:03:48;16.50;99.90
46231;DHT22;31949;51.404;-0.038;2022-10-28T07:06:15;16.50;99.90
46231;DHT22;31949;51.404;-0.038;2022-10-28T07:08:43;16.60;99.90
46231;DHT22;31949;51.404;-0.038;2022-10-28T07:11:10;16.60;99.90
46231;DHT22;31949;51.404;-0.038;2022-10-28T07:13:37;16.50;99.90
46231;DHT22;31949;51.404;-0.038;2022-10-28T07:16:05;16.60;99.90
46231;DHT22;31949;51.404;-0.038;2022-10-28T07:18:32;16.60;99.90
46231;DHT22;31949;51.404;-0.038;2022-10-28T07:21:00;16.70;99.90
46231;DHT22;31949;51.404;-0.038;2022-10-28T07:23:28;16.80;99.90
46231;DHT22;31949;51.404;-0.038;2022-10-28T07:25:58;16.70;99.90
46231;DHT22;31949;51.404;-0.038;2022-10-28T07:28:26;16.80;99.90
46231;DHT22;31949;51.404;-0.038;2022-10-28T07:30:54;16.80;99.90
46231;DHT22;31949;51.404;-0.038;2022-10-28T07:33:21;16.90;99.90
46231;DHT22;31949;51.404;-0.038;2022-10-28T07:35:48;16.90;99.90
46231;DHT22;31949;51.404;-0.038;2022-10-28T07:38:15;16.90;99.90
46231;DHT22;31949;51.404;-0.038;2022-10-28T07:40:43;16.90;99.90
46231;DHT22;31949;51.404;-0.038;2022-10-28T07:43:10;16.80;99.90
46231;DHT22;31949;51.404;-0.038;2022-10-28T07:45:37;16.90;99.90
46231;DHT22;31949;51.404;-0.038;2022-10-28T07:48:05;16.90;99.90
46231;DHT22;31949;51.404;-0.038;2022-10-28T07:50:32;16.90;99.90
46231;DHT22;31949;51.404;-0.038;2022-10-28T07:52:59;16.90;99.90
46231;DHT22;31949;51.404;-0.038;2022-10-28T07:55:27;17.00;99.90
46231;DHT22;31949;51.404;-0.038;2022-10-28T07:57:54;17.10;99.90
46231;DHT22;31949;51.404;-0.038;2022-10-28T08:00:22;17.10;99.90
46231;DHT22;31949;51.404;-0.038;2022-10-28T08:02:49;17.10;99.90
46231;DHT22;31949;51.404;-0.038;2022-10-28T08:05:16;17.20;99.90
46231;DHT22;31949;51.404;-0.038;2022-10-28T08:07:43;17.10;99.90
46231;DHT22;31949;51.404;-0.038;2022-10-28T08:10:12;17.30;99.90
46231;DHT22;31949;51.404;-0.038;2022-10-28T08:12:39;17.30;99.90
46231;DHT22;31949;51.404;-0.038;2022-10-28T08:15:07;17.30;99.90
46231;DHT22;31949;51.404;-0.038;2022-10-28T08:17:36;17.30;99.90
46231;DHT22;31949;51.404;-0.038;2022-10-28T08:20:04;17.30;99.90
46231;DHT22;31949;51.404;-0.038;2022-10-28T08:22:32;17.40;99.90
46231;DHT22;31949;51.404;-0.038;2022-10-28T08:24:59;17.40;99.90
46231;DHT22;31949;51.404;-0.038;2022-10-28T08:27:26;17.50;99.90
46231;DHT22;31949;51.404;-0.038;2022-10-28T08:29:53;17.50;99.90
46231;DHT22;31949;51.404;-0.038;2022-10-28T08:32:20;17.60;99.90
46231;DHT22;31949;51.404;-0.038;2022-10-28T08:34:48;17.60;99.90
46231;DHT22;31949;51.404;-0.038;2022-10-28T08:37:15;17.60;99.90
46231;DHT22;31949;51.404;-0.038;2022-10-28T08:39:42;17.60;99.90
46231;DHT22;31949;51.404;-0.038;2022-10-28T08:42:44;17.60;99.90
46231;DHT22;31949;51.404;-0.038;2022-10-28T08:45:24;17.70;99.90
46231;DHT22;31949;51.404;-0.038;2022-10-28T08:48:23;17.70;99.90
46231;DHT22;31949;51.404;-0.038;2022-10-28T08:53:54;17.70;99.90
46231;DHT22;31949;51.404;-0.038;2022-10-28T08:56:30;17.80;99.90
46231;DHT22;31949;51.404;-0.038;2022-10-28T08:59:01;17.90;99.90
46231;DHT22;31949;51.404;-0.038;2022-10-28T09:02:43;17.90;99.90
46231;DHT22;31949;51.404;-0.038;2022-10-28T09:04:45;18.00;99.90
46231;DHT22;31949;51.404;-0.038;2022-10-28T09:07:21;18.00;99.90
46231;DHT22;31949;51.404;-0.038;2022-10-28T09:09:51;18.00;99.90
46231;DHT22;31949;51.404;-0.038;2022-10-28T09:17:56;18.10;99.90
46231;DHT22;31949;51.404;-0.038;2022-10-28T09:20:46;18.10;99.90
46231;DHT22;31949;51.404;-0.038;2022-10-28T09:32:00;18.20;99.90
46231;DHT22;31949;51.404;-0.038;2022-10-28T09:34:47;18.30;99.90
46231;DHT22;31949;51.404;-0.038;2022-10-28T09:37:22;18.30;99.90
46231;DHT22;31949;51.404;-0.038;2022-10-28T09:42:42;18.40;99.90
46231;DHT22;31949;51.404;-0.038;2022-10-28T09:45:19;18.50;99.90
46231;DHT22;31949;51.404;-0.038;2022-10-28T09:50:52;18.50;99.90
46231;DHT22;31949;51.404;-0.038;2022-10-28T09:53:46;18.50;99.90
46231;DHT22;31949;51.404;-0.038;2022-10-28T09:56:14;18.40;99.90
46231;DHT22;31949;51.404;-0.038;2022-10-28T09:58:45;18.50;99.90
46231;DHT22;31949;51.404;-0.038;2022-10-28T10:01:15;18.40;99.90
46231;DHT22;31949;51.404;-0.038;2022-10-28T10:03:50;18.40;99.90
46231;DHT22;31949;51.404;-0.038;2022-10-28T10:06:35;18.40;99.90
46231;DHT22;31949;51.404;-0.038;2022-10-28T10:09:03;18.30;99.90
46231;DHT22;31949;51.404;-0.038;2022-10-28T10:11:45;18.30;99.90
46231;DHT22;31949;51.404;-0.038;2022-10-28T10:14:25;18.40;99.90
46231;DHT22;31949;51.404;-0.038;2022-10-28T10:16:58;18.30;99.90
46231;DHT22;31949;51.404;-0.038;2022-10-28T10:19:26;18.20;99.90
46231;DHT22;31949;51.404;-0.038;2022-10-28T10:21:54;18.20;99.90
46231;DHT22;31949;51.404;-0.038;2022-10-28T10:24:34;18.30;99.90
46231;DHT22;31949;51.404;-0.038;2022-10-28T10:27:13;18.20;99.90
46231;DHT22;31949;51.404;-0.038;2022-10-28T10:29:44;18.30;99.90
46231;DHT22;31949;51.404;-0.038;2022-10-28T10:32:17;18.30;99.90
46231;DHT22;31949;51.404;-0.038;2022-10-28T10:37:35;18.40;99.90
46231;DHT22;31949;51.404;-0.038;2022-10-28T10:42:53;18.50;99.90
46231;DHT22;31949;51.404;-0.038;2022-10-28T10:45:39;18.50;99.90
46231;DHT22;31949;51.404;-0.038;2022-10-28T10:48:14;18.50;99.90
46231;DHT22;31949;51.404;-0.038;2022-10-28T10:50:42;18.50;99.90
46231;DHT22;31949;51.404;-0.038;2022-10-28T10:53:31;18.40;99.90
46231;DHT22;31949;51.404;-0.038;2022-10-28T10:56:03;18.40;99.90
46231;DHT22;31949;51.404;-0.038;2022-10-28T10:58:34;18.30;99.90
46231;DHT22;31949;51.404;-0.038;2022-10-28T11:01:04;18.20;99.90
46231;DHT22;31949;51.404;-0.038;2022-10-28T11:06:25;18.20;99.90
46231;DHT22;31949;51.404;-0.038;2022-10-28T11:08:58;18.20;99.90
46231;DHT22;31949;51.404;-0.038;2022-10-28T11:11:35;18.30;99.90
46231;DHT22;31949;51.404;-0.038;2022-10-28T11:16:55;18.30;99.90
46231;DHT22;31949;51.404;-0.038;2022-10-28T11:19:29;18.40;99.90
46231;DHT22;31949;51.404;-0.038;2022-10-28T11:28:16;18.40;99.90
46231;DHT22;31949;51.404;-0.038;2022-10-28T11:30:44;18.50;99.90
46231;DHT22;31949;51.404;-0.038;2022-10-28T11:33:18;18.50;99.90
46231;DHT22;31949;51.404;-0.038;2022-10-28T11:42:18;18.50;99.90
46231;DHT22;31949;51.404;-0.038;2022-10-28T11:45:14;18.50;99.90
46231;DHT22;31949;51.404;-0.038;2022-10-28T11:51:14;18.40;99.90
46231;DHT22;31949;51.404;-0.038;2022-10-28T11:53:55;18.50;99.90
46231;DHT22;31949;51.404;-0.038;2022-10-28T11:56:37;18.60;99.90
46231;DHT22;31949;51.404;-0.038;2022-10-28T11:59:38;18.70;99.90
46231;DHT22;31949;51.404;-0.038;2022-10-28T12:10:39;19.00;99.90
46231;DHT22;31949;51.404;-0.038;2022-10-28T12:16:16;19.00;99.90
46231;DHT22;31949;51.404;-0.038;2022-10-28T12:18:53;19.00;99.90
46231;DHT22;31949;51.404;-0.038;2022-10-28T12:21:34;19.00;99.90
46231;DHT22;31949;51.404;-0.038;2022-10-28T12:24:05;18.90;99.90
46231;DHT22;31949;51.404;-0.038;2022-10-28T12:26:48;19.00;99.90
46231;DHT22;31949;51.404;-0.038;2022-10-28T12:29:28;19.20;99.90
46231;DHT22;31949;51.404;-0.038;2022-10-28T12:32:03;19.30;99.90
46231;DHT22;31949;51.404;-0.038;2022-10-28T12:34:37;19.30;99.90
46231;DHT22;31949;51.404;-0.038;2022-10-28T12:37:17;19.20;99.90
46231;DHT22;31949;51.404;-0.038;2022-10-28T12:45:42;19.40;99.90
46231;DHT22;31949;51.404;-0.038;2022-10-28T12:48:18;19.30;99.90
46231;DHT22;31949;51.404;-0.038;2022-10-28T12:50:52;19.30;99.90
46231;DHT22;31949;51.404;-0.038;2022-10-28T12:53:27;19.40;99.90
46231;DHT22;31949;51.404;-0.038;2022-10-28T12:56:02;19.30;99.90
46231;DHT22;31949;51.404;-0.038;2022-10-28T12:59:27;19.30;99.90
46231;DHT22;31949;51.404;-0.038;2022-10-28T13:01:57;19.30;99.90
46231;DHT22;31949;51.404;-0.038;2022-10-28T13:04:31;19.20;99.90
46231;DHT22;31949;51.404;-0.038;2022-10-28T13:09:52;19.20;99.90
46231;DHT22;31949;51.404;-0.038;2022-10-28T13:12:38;19.20;99.90
46231;DHT22;31949;51.404;-0.038;2022-10-28T13:18:33;19.20;99.90
46231;DHT22;31949;51.404;-0.038;2022-10-28T13:21:16;19.20;99.90
46231;DHT22;31949;51.404;-0.038;2022-10-28T13:24:18;19.30;99.90
46231;DHT22;31949;51.404;-0.038;2022-10-28T13:26:47;19.20;99.90
46231;DHT22;31949;51.404;-0.038;2022-10-28T13:29:24;19.20;99.90
46231;DHT22;31949;51.404;-0.038;2022-10-28T13:31:56;19.30;99.90
46231;DHT22;31949;51.404;-0.038;2022-10-28T13:34:37;19.30;99.90
46231;DHT22;31949;51.404;-0.038;2022-10-28T13:37:14;19.20;99.90
46231;DHT22;31949;51.404;-0.038;2022-10-28T13:39:45;19.10;99.90
46231;DHT22;31949;51.404;-0.038;2022-10-28T13:47:24;19.20;99.90
46231;DHT22;31949;51.404;-0.038;2022-10-28T13:52:44;19.30;99.90
46231;DHT22;31949;51.404;-0.038;2022-10-28T13:57:59;19.40;99.90
46231;DHT22;31949;51.404;-0.038;2022-10-28T14:03:02;19.30;99.90
46231;DHT22;31949;51.404;-0.038;2022-10-28T14:11:24;19.30;99.90
46231;DHT22;31949;51.404;-0.038;2022-10-28T14:13:58;19.30;99.90
46231;DHT22;31949;51.404;-0.038;2022-10-28T14:16:33;19.40;99.90
46231;DHT22;31949;51.404;-0.038;2022-10-28T14:48:42;19.20;99.90
46231;DHT22;31949;51.404;-0.038;2022-10-28T14:51:14;19.20;99.90
46231;DHT22;31949;51.404;-0.038;2022-10-28T14:53:42;19.10;99.90
46231;DHT22;31949;51.404;-0.038;2022-10-28T14:56:31;19.10;99.90
46231;DHT22;31949;51.404;-0.038;2022-10-28T14:59:21;19.10;99.90
46231;DHT22;31949;51.404;-0.038;2022-10-28T15:02:13;19.00;99.90
46231;DHT22;31949;51.404;-0.038;2022-10-28T15:05:16;18.90;99.90
46231;DHT22;31949;51.404;-0.038;2022-10-28T15:07:46;18.70;99.90
46231;DHT22;31949;51.404;-0.038;2022-10-28T15:10:24;18.70;99.90
46231;DHT22;31949;51.404;-0.038;2022-10-28T15:12:54;18.60;99.90
46231;DHT22;31949;51.404;-0.038;2022-10-28T15:15:26;18.60;99.90
46231;DHT22;31949;51.404;-0.038;2022-10-28T15:17:54;18.60;99.90
46231;DHT22;31949;51.404;-0.038;2022-10-28T15:20:25;18.50;99.90
46231;DHT22;31949;51.404;-0.038;2022-10-28T15:23:09;18.50;99.90
46231;DHT22;31949;51.404;-0.038;2022-10-28T15:25:36;18.50;99.90
46231;DHT22;31949;51.404;-0.038;2022-10-28T15:28:11;18.50;99.90
46231;DHT22;31949;51.404;-0.038;2022-10-28T15:30:40;18.50;99.90
46231;DHT22;31949;51.404;-0.038;2022-10-28T15:35:46;18.40;99.90
46231;DHT22;31949;51.404;-0.038;2022-10-28T15:38:25;18.40;99.90
46231;DHT22;31949;51.404;-0.038;2022-10-28T15:40:57;18.30;99.90
46231;DHT22;31949;51.404;-0.038;2022-10-28T15:43:29;18.40;99.90
46231;DHT22;31949;51.404;-0.038;2022-10-28T15:46:14;18.30;99.90
46231;DHT22;31949;51.404;-0.038;2022-10-28T15:49:33;18.20;99.90
46231;DHT22;31949;51.404;-0.038;2022-10-28T15:54:54;18.10;99.90
46231;DHT22;31949;51.404;-0.038;2022-10-28T15:57:34;18.10;99.90
46231;DHT22;31949;51.404;-0.038;2022-10-28T16:00:19;18.00;99.90
46231;DHT22;31949;51.404;-0.038;2022-10-28T16:03:04;18.00;99.90
46231;DHT22;31949;51.404;-0.038;2022-10-28T16:08:28;17.90;99.90
46231;DHT22;31949;51.404;-0.038;2022-10-28T16:11:20;17.80;99.90
46231;DHT22;31949;51.404;-0.038;2022-10-28T16:13:48;17.80;99.90
46231;DHT22;31949;51.404;-0.038;2022-10-28T16:16:30;17.80;99.90
46231;DHT22;31949;51.404;-0.038;2022-10-28T16:19:09;17.70;99.90
46231;DHT22;31949;51.404;-0.038;2022-10-28T16:21:43;17.70;99.90
46231;DHT22;31949;51.404;-0.038;2022-10-28T16:24:19;17.60;99.90
46231;DHT22;31949;51.404;-0.038;2022-10-28T16:26:46;17.50;99.90
46231;DHT22;31949;51.404;-0.038;2022-10-28T16:29:13;17.40;99.90
46231;DHT22;31949;51.404;-0.038;2022-10-28T16:31:40;17.30;99.90
46231;DHT22;31949;51.404;-0.038;2022-10-28T16:34:14;17.30;99.90
46231;DHT22;31949;51.404;-0.038;2022-10-28T16:36:41;17.30;99.90
46231;DHT22;31949;51.404;-0.038;2022-10-28T16:39:11;17.20;99.90
46231;DHT22;31949;51.404;-0.038;2022-10-28T16:41:39;17.10;99.90
46231;DHT22;31949;51.404;-0.038;2022-10-28T16:44:16;17.10;99.90
46231;DHT22;31949;51.404;-0.038;2022-10-28T16:46:44;17.00;99.90
46231;DHT22;31949;51.404;-0.038;2022-10-28T16:49:11;17.00;99.90
46231;DHT22;31949;51.404;-0.038;2022-10-28T16:51:38;17.00;99.90
46231;DHT22;31949;51.404;-0.038;2022-10-28T16:54:05;16.90;99.90
46231;DHT22;31949;51.404;-0.038;2022-10-28T16:56:33;16.80;99.90
46231;DHT22;31949;51.404;-0.038;2022-10-28T16:59:00;16.80;99.90
46231;DHT22;31949;51.404;-0.038;2022-10-28T17:01:27;16.70;99.90
46231;DHT22;31949;51.404;-0.038;2022-10-28T17:03:55;16.70;99.90
46231;DHT22;31949;51.404;-0.038;2022-10-28T17:06:22;16.60;99.90
46231;DHT22;31949;51.404;-0.038;2022-10-28T17:08:49;16.60;99.90
46231;DHT22;31949;51.404;-0.038;2022-10-28T17:11:29;16.50;99.90
46231;DHT22;31949;51.404;-0.038;2022-10-28T17:13:57;16.50;99.90
46231;DHT22;31949;51.404;-0.038;2022-10-28T17:16:24;16.50;99.90
46231;DHT22;31949;51.404;-0.038;2022-10-28T17:18:51;16.40;99.90
46231;DHT22;31949;51.404;-0.038;2022-10-28T17:21:19;16.30;99.90
46231;DHT22;31949;51.404;-0.038;2022-10-28T17:23:46;16.30;99.90
46231;DHT22;31949;51.404;-0.038;2022-10-28T17:26:13;16.20;99.90
46231;DHT22;31949;51.404;-0.038;2022-10-28T17:28:40;16.20;99.90
46231;DHT22;31949;51.404;-0.038;2022-10-28T17:31:08;16.10;99.90
46231;DHT22;31949;51.404;-0.038;2022-10-28T17:33:35;16.10;99.90
46231;DHT22;31949;51.404;-0.038;2022-10-28T17:36:04;16.00;99.90
46231;DHT22;31949;51.404;-0.038;2022-10-28T17:38:32;16.00;99.90
46231;DHT22;31949;51.404;-0.038;2022-10-28T17:40:59;15.90;99.90
46231;DHT22;31949;51.404;-0.038;2022-10-28T17:43:26;15.90;99.90
46231;DHT22;31949;51.404;-0.038;2022-10-28T17:46:05;15.90;99.90
46231;DHT22;31949;51.404;-0.038;2022-10-28T17:48:32;15.80;99.90
46231;DHT22;31949;51.404;-0.038;2022-10-28T17:51:00;15.80;99.90
46231;DHT22;31949;51.404;-0.038;2022-10-28T17:53:27;15.80;99.90
46231;DHT22;31949;51.404;-0.038;2022-10-28T17:55:58;15.70;99.90
46231;DHT22;31949;51.404;-0.038;2022-10-28T17:58:26;15.60;99.90
46231;DHT22;31949;51.404;-0.038;2022-10-28T18:01:02;15.60;99.90
46231;DHT22;31949;51.404;-0.038;2022-10-28T18:03:31;15.50;99.90
46231;DHT22;31949;51.404;-0.038;2022-10-28T18:06:06;15.50;99.90
46231;DHT22;31949;51.404;-0.038;2022-10-28T18:08:34;15.40;99.90
46231;DHT22;31949;51.404;-0.038;2022-10-28T18:11:04;15.30;99.90
46231;DHT22;31949;51.404;-0.038;2022-10-28T18:13:33;15.30;99.90
46231;DHT22;31949;51.404;-0.038;2022-10-28T18:16:47;15.30;99.90
46231;DHT22;31949;51.404;-0.038;2022-10-28T18:19:16;15.30;99.90
46231;DHT22;31949;51.404;-0.038;2022-10-28T18:21:43;15.20;99.90
46231;DHT22;31949;51.404;-0.038;2022-10-28T18:24:12;15.10;99.90
46231;DHT22;31949;51.404;-0.038;2022-10-28T18:26:53;15.10;99.90
46231;DHT22;31949;51.404;-0.038;2022-10-28T18:29:23;15.00;99.90